Time;durP1;ratioP1;P1;durP2;ratioP2;P2;SDS_P1;SDS_P2;PMS_P1;PMS_P2;Temp;Humidity;BMP_temperature;BMP_pressure;BME280_temperature;BME280_humidity;BME280_pressure;Samples;Min_cycle;Max_cycle;Signal;HPM_P1;HPM_P2
2021/04/13 00:07:07;;;;;;;15.25;8.25;;;;;;;;;;4348386;28;20183;-58
2021/04/13 00:09:34;;;;;;;15.70;9.45;;;;;;;;;;4161621;34;20103;-57
2021/04/13 00:12:03;;;;;;;15.32;9.40;;;;;;;;;;4169673;34;20126;-57
2021/04/13 00:14:30;;;;;;;30.75;9.95;;;;;;;;;;4180860;34;20540;-57
2021/04/13 00:16:58;;;;;;;14.57;10.27;;;;;;;;;;4205125;34;20207;-57
2021/04/13 00:19:30;;;;;;;19.20;10.45;;;;;;;;;;4192334;34;20137;-57
2021/04/13 00:21:56;;;;;;;17.87;10.38;;;;;;;;;;4192369;34;20103;-57
2021/04/13 00:24:23;;;;;;;17.50;10.63;;;;;;;;;;4204932;34;20192;-57
2021/04/13 00:26:53;;;;;;;17.27;10.85;;;;;;;;;;4180906;34;20137;-57
2021/04/13 00:29:28;;;;;;;18.87;11.30;;;;;;;;;;4180793;34;20132;-57
2021/04/13 00:31:55;;;;;;;17.63;10.77;;;;;;;;;;4180763;34;20122;-57
2021/04/13 00:34:24;;;;;;;17.98;11.48;;;;;;;;;;4192169;34;20209;-57
2021/04/13 00:37:10;;;;;;;17.42;11.05;;;;;;;;;;4204940;34;20124;-57
2021/04/13 00:39:36;;;;;;;18.87;11.55;;;;;;;;;;4204826;34;20089;-57
2021/04/13 00:42:05;;;;;;;16.80;10.43;;;;;;;;;;4204553;34;20172;-57
2021/04/13 00:44:34;;;;;;;15.38;11.38;;;;;;;;;;4191941;34;20531;-57
2021/04/13 00:47:05;;;;;;;14.93;10.32;;;;;;;;;;4180431;34;20604;-57
2021/04/13 00:49:33;;;;;;;17.08;10.48;;;;;;;;;;4192047;34;20426;-56
2021/04/13 00:52:01;;;;;;;14.20;11.23;;;;;;;;;;4180649;34;20134;-57
2021/04/13 00:54:31;;;;;;;15.48;11.98;;;;;;;;;;4180636;34;20517;-57
2021/04/13 00:57:00;;;;;;;17.67;11.73;;;;;;;;;;4180836;34;20137;-57
2021/04/13 00:59:25;;;;;;;17.23;11.60;;;;;;;;;;4192027;34;20101;-57
2021/04/13 01:01:55;;;;;;;15.75;10.82;;;;;;;;;;4191781;34;20117;-57
2021/04/13 01:04:37;;;;;;;18.77;11.23;;;;;;;;;;4191437;34;20082;-57
2021/04/13 01:07:16;;;;;;;19.52;11.45;;;;;;;;;;4180202;34;20160;-56
2021/04/13 01:09:46;;;;;;;17.10;11.20;;;;;;;;;;4204708;34;20205;-57
2021/04/13 01:12:31;;;;;;;17.12;11.12;;;;;;;;;;4191607;34;20454;-57
2021/04/13 01:14:57;;;;;;;14.57;10.98;;;;;;;;;;4203073;34;20089;-57
2021/04/13 01:17:23;;;;;;;17.73;10.32;;;;;;;;;;4191741;34;20205;-57
2021/04/13 01:20:10;;;;;;;14.98;10.10;;;;;;;;;;4191499;34;20125;-57
2021/04/13 01:23:01;;;;;;;16.75;10.30;;;;;;;;;;4204262;34;20553;-57
2021/04/13 01:25:30;;;;;;;20.55;12.13;;;;;;;;;;4193893;34;20580;-57
2021/04/13 01:27:59;;;;;;;16.20;10.20;;;;;;;;;;4191697;34;20105;-57
2021/04/13 01:30:51;;;;;;;19.27;11.30;;;;;;;;;;4191329;34;20133;-57
2021/04/13 01:33:21;;;;;;;19.65;11.20;;;;;;;;;;4191647;34;20127;-57
2021/04/13 01:35:55;;;;;;;24.50;13.18;;;;;;;;;;4204220;34;20201;-57
2021/04/13 01:38:33;;;;;;;22.75;13.27;;;;;;;;;;4204243;34;20133;-57
2021/04/13 01:43:29;;;;;;;20.08;11.77;;;;;;;;;;4191460;34;20105;-55
2021/04/13 01:45:54;;;;;;;19.90;10.60;;;;;;;;;;4180142;34;20454;-57
2021/04/13 01:48:20;;;;;;;17.73;9.68;;;;;;;;;;4179836;34;20102;-57
2021/04/13 01:50:54;;;;;;;14.95;10.05;;;;;;;;;;4191422;34;20550;-57
2021/04/13 01:53:21;;;;;;;20.40;10.18;;;;;;;;;;4204097;34;20542;-57
2021/04/13 01:55:52;;;;;;;13.43;10.20;;;;;;;;;;4191498;34;20198;-57
2021/04/13 01:58:51;;;;;;;21.08;10.75;;;;;;;;;;4191340;34;20110;-57
2021/04/13 02:01:53;;;;;;;21.62;10.32;;;;;;;;;;4191009;34;20102;-57
2021/04/13 02:04:20;;;;;;;17.25;10.43;;;;;;;;;;4200646;34;20215;-57
2021/04/13 02:07:27;;;;;;;18.27;10.05;;;;;;;;;;4203672;34;20110;-57
2021/04/13 02:09:59;;;;;;;;;;;;;;;;;;4193838;34;20798;-57
2021/04/13 02:12:27;;;;;;;12.90;9.82;;;;;;;;;;4191626;34;20066;-57
2021/04/13 02:15:01;;;;;;;19.15;9.75;;;;;;;;;;4191396;34;20132;-57
2021/04/13 02:17:39;;;;;;;16.17;9.87;;;;;;;;;;4193076;34;20240;-59
2021/04/13 02:20:09;;;;;;;13.82;9.98;;;;;;;;;;4193323;34;20102;-58
2021/04/13 02:22:39;;;;;;;15.32;9.88;;;;;;;;;;4193000;34;20090;-58
2021/04/13 02:25:06;;;;;;;15.30;9.20;;;;;;;;;;4182246;34;20110;-58
2021/04/13 02:27:33;;;;;;;16.50;8.88;;;;;;;;;;4181721;34;20120;-59
2021/04/13 02:30:14;;;;;;;15.45;8.15;;;;;;;;;;4181590;34;20235;-57
2021/04/13 02:32:47;;;;;;;17.33;9.93;;;;;;;;;;4205831;34;20510;-58
2021/04/13 02:35:21;;;;;;;14.90;8.98;;;;;;;;;;4192999;34;20121;-58
2021/04/13 02:37:54;;;;;;;17.20;9.93;;;;;;;;;;4192991;34;20113;-59
2021/04/13 02:40:35;;;;;;;18.17;10.40;;;;;;;;;;4193100;34;20113;-58
2021/04/13 02:43:10;;;;;;;18.45;10.20;;;;;;;;;;4192913;34;20147;-57
2021/04/13 02:45:50;;;;;;;27.50;11.50;;;;;;;;;;4192844;34;20137;-57
2021/04/13 02:48:17;;;;;;;18.67;11.07;;;;;;;;;;4192942;34;20137;-58
2021/04/13 02:50:45;;;;;;;20.83;10.43;;;;;;;;;;4192786;34;20162;-58
2021/04/13 02:53:11;;;;;;;23.27;10.77;;;;;;;;;;4192803;34;20094;-59
2021/04/13 02:55:38;;;;;;;16.17;11.25;;;;;;;;;;4192715;34;20109;-59
2021/04/13 02:58:06;;;;;;;19.48;10.77;;;;;;;;;;4181663;34;20159;-59
2021/04/13 03:00:43;;;;;;;22.27;11.48;;;;;;;;;;4181378;34;20117;-61
2021/04/13 03:03:12;;;;;;;17.60;10.43;;;;;;;;;;4192692;34;20108;-59
2021/04/13 03:05:38;;;;;;;15.93;10.05;;;;;;;;;;4192614;34;20200;-56
2021/04/13 03:08:06;;;;;;;23.12;11.10;;;;;;;;;;4181246;34;20515;-60
2021/04/13 03:10:44;;;;;;;19.52;10.15;;;;;;;;;;4192894;34;20081;-59
2021/04/13 03:13:16;;;;;;;17.33;10.32;;;;;;;;;;4192784;34;20525;-57
2021/04/13 03:15:43;;;;;;;19.77;11.57;;;;;;;;;;4192753;34;20118;-58
2021/04/13 03:18:16;;;;;;;21.85;11.63;;;;;;;;;;4192849;34;20590;-58
2021/04/13 03:20:44;;;;;;;20.55;10.25;;;;;;;;;;4192605;34;20129;-59
2021/04/13 03:23:11;;;;;;;26.83;11.60;;;;;;;;;;4181219;34;20102;-59
2021/04/13 03:25:59;;;;;;;23.25;9.82;;;;;;;;;;4192596;34;20101;-59
2021/04/13 03:28:28;;;;;;;16.08;8.98;;;;;;;;;;4194381;34;20109;-59
2021/04/13 03:30:54;;;;;;;23.92;11.07;;;;;;;;;;4192910;34;20125;-59
2021/04/13 03:33:25;;;;;;;15.35;9.18;;;;;;;;;;4203907;34;20133;-58
2021/04/13 03:35:53;;;;;;;18.98;8.77;;;;;;;;;;4192893;34;20129;-59
2021/04/13 03:38:20;;;;;;;18.05;10.18;;;;;;;;;;4192685;34;20140;-58
2021/04/13 03:40:47;;;;;;;12.77;8.75;;;;;;;;;;4192463;34;20114;-58
2021/04/13 03:43:15;;;;;;;15.68;9.82;;;;;;;;;;4192517;34;20145;-58
2021/04/13 03:45:41;;;;;;;14.93;9.73;;;;;;;;;;4192253;34;20116;-57
2021/04/13 03:48:08;;;;;;;21.83;9.88;;;;;;;;;;4192184;34;20102;-58
2021/04/13 03:50:39;;;;;;;19.00;10.50;;;;;;;;;;4192343;34;20114;-58
2021/04/13 03:53:10;;;;;;;16.50;9.85;;;;;;;;;;4192593;34;20097;-57
2021/04/13 03:55:36;;;;;;;15.60;10.00;;;;;;;;;;4192033;34;20703;-57
2021/04/13 03:58:22;;;;;;;21.85;10.73;;;;;;;;;;4192241;34;20114;-58
2021/04/13 04:00:48;;;;;;;23.58;10.48;;;;;;;;;;4180919;34;20132;-58
2021/04/13 04:03:14;;;;;;;23.62;11.05;;;;;;;;;;4191877;34;20117;-57
2021/04/13 04:05:45;;;;;;;27.25;11.90;;;;;;;;;;4191555;34;20113;-58
2021/04/13 04:08:20;;;;;;;24.98;13.25;;;;;;;;;;4192154;34;20205;-57
2021/04/13 04:10:47;;;;;;;19.92;10.80;;;;;;;;;;4204988;34;20542;-57
2021/04/13 04:13:16;;;;;;;22.30;11.77;;;;;;;;;;4204949;34;20113;-57
2021/04/13 04:15:50;;;;;;;21.40;10.45;;;;;;;;;;4204736;34;20090;-57
2021/04/13 04:18:29;;;;;;;18.97;8.20;;;;;;;;;;4192388;34;20121;-57
2021/04/13 04:20:55;;;;;;;18.10;7.90;;;;;;;;;;4205107;34;20135;-57
2021/04/13 04:23:39;;;;;;;14.55;7.97;;;;;;;;;;4204776;34;20117;-58
2021/04/13 04:26:06;;;;;;;14.90;8.00;;;;;;;;;;4192215;34;20272;-57
2021/04/13 04:28:38;;;;;;;22.50;7.60;;;;;;;;;;4180460;34;20518;-58
2021/04/13 04:31:36;;;;;;;17.75;7.30;;;;;;;;;;4192077;34;20124;-57
2021/04/13 04:34:14;;;;;;;17.58;7.25;;;;;;;;;;4204933;34;20113;-57
2021/04/13 04:36:43;;;;;;;28.42;6.20;;;;;;;;;;4204683;34;20112;-58
2021/04/13 04:39:27;;;;;;;22.33;5.75;;;;;;;;;;4203980;34;20185;-57
2021/04/13 04:41:55;;;;;;;18.25;6.15;;;;;;;;;;4204862;34;20205;-57
2021/04/13 04:44:29;;;;;;;24.90;6.93;;;;;;;;;;4191883;34;20192;-58
2021/04/13 04:46:59;;;;;;;20.83;7.72;;;;;;;;;;4191667;34;20166;-58
2021/04/13 04:49:34;;;;;;;20.48;5.45;;;;;;;;;;4192253;34;20101;-57
2021/04/13 04:52:00;;;;;;;22.73;5.30;;;;;;;;;;4204428;34;20109;-57
2021/04/13 04:54:26;;;;;;;21.62;5.40;;;;;;;;;;4204489;34;20168;-58
2021/04/13 04:56:52;;;;;;;18.75;5.62;;;;;;;;;;4204472;34;20474;-57
2021/04/13 04:59:18;;;;;;;10.93;5.45;;;;;;;;;;4204399;34;20229;-57
2021/04/13 05:01:43;;;;;;;21.42;6.55;;;;;;;;;;4204154;34;20210;-58
2021/04/13 05:04:11;;;;;;;13.32;4.15;;;;;;;;;;4204275;34;20189;-57
2021/04/13 05:06:36;;;;;;;19.87;5.93;;;;;;;;;;4204112;34;20205;-58
2021/04/13 05:09:02;;;;;;;19.67;4.22;;;;;;;;;;4204191;34;20233;-58
2021/04/13 05:11:29;;;;;;;11.70;3.83;;;;;;;;;;4204097;34;20125;-58
2021/04/13 05:13:55;;;;;;;9.07;3.45;;;;;;;;;;4204492;34;20109;-58
2021/04/13 05:16:21;;;;;;;13.73;3.85;;;;;;;;;;4204482;34;20474;-57
2021/04/13 05:18:47;;;;;;;8.70;3.05;;;;;;;;;;4191591;34;20120;-57
2021/04/13 05:21:13;;;;;;;10.60;3.92;;;;;;;;;;4204481;34;20117;-57
2021/04/13 05:23:39;;;;;;;13.15;3.72;;;;;;;;;;4204533;34;20129;-58
2021/04/13 05:26:05;;;;;;;10.73;3.80;;;;;;;;;;4204220;34;20141;-57
2021/04/13 05:28:32;;;;;;;20.90;3.15;;;;;;;;;;4204557;34;20133;-57
2021/04/13 05:30:58;;;;;;;20.60;4.05;;;;;;;;;;4204477;34;20117;-57
2021/04/13 05:33:25;;;;;;;19.30;4.00;;;;;;;;;;4204260;34;20120;-57
2021/04/13 05:35:51;;;;;;;18.92;4.60;;;;;;;;;;4191343;34;20110;-57
2021/04/13 05:38:20;;;;;;;13.45;4.45;;;;;;;;;;4204274;34;20121;-57
2021/04/13 05:40:46;;;;;;;20.92;3.85;;;;;;;;;;4191338;34;20201;-57
2021/04/13 05:43:12;;;;;;;16.80;3.00;;;;;;;;;;4191265;34;20121;-57
2021/04/13 05:45:40;;;;;;;13.07;3.35;;;;;;;;;;4191151;34;20225;-57
2021/04/13 05:48:06;;;;;;;17.45;3.35;;;;;;;;;;4191267;34;20133;-58
2021/04/13 05:50:34;;;;;;;12.20;2.87;;;;;;;;;;4193016;34;20105;-57
2021/04/13 05:53:00;;;;;;;14.80;4.18;;;;;;;;;;4206267;34;20129;-57
2021/04/13 05:55:26;;;;;;;9.90;3.17;;;;;;;;;;4206126;34;20129;-57
2021/04/13 05:57:55;;;;;;;17.25;3.40;;;;;;;;;;4193146;34;20620;-57
2021/04/13 06:00:23;;;;;;;18.48;3.83;;;;;;;;;;4193126;34;20094;-58
2021/04/13 06:02:49;;;;;;;8.13;2.75;;;;;;;;;;4193107;34;20105;-58
2021/04/13 06:05:15;;;;;;;12.70;2.80;;;;;;;;;;4206326;34;20102;-58
2021/04/13 06:07:41;;;;;;;23.30;3.20;;;;;;;;;;4192929;34;20181;-57
2021/04/13 06:10:08;;;;;;;22.00;1.98;;;;;;;;;;4206050;34;20510;-58
2021/04/13 06:12:35;;;;;;;23.35;4.72;;;;;;;;;;4206218;34;20565;-58
2021/04/13 06:15:01;;;;;;;15.55;3.58;;;;;;;;;;4193167;34;20114;-58
2021/04/13 06:17:27;;;;;;;5.70;2.65;;;;;;;;;;4206157;34;20110;-58
2021/04/13 06:19:53;;;;;;;13.85;3.50;;;;;;;;;;4205959;34;20090;-58
2021/04/13 06:22:19;;;;;;;6.22;2.90;;;;;;;;;;4206058;34;20129;-58
2021/04/13 06:24:45;;;;;;;11.55;2.83;;;;;;;;;;4193143;34;20180;-59
2021/04/13 06:27:11;;;;;;;9.60;3.45;;;;;;;;;;4192969;34;20141;-58
2021/04/13 06:29:38;;;;;;;12.48;3.20;;;;;;;;;;4204637;34;20129;-58
2021/04/13 06:32:08;;;;;;;10.52;3.70;;;;;;;;;;4193105;34;20121;-58
2021/04/13 06:34:34;;;;;;;11.82;4.40;;;;;;;;;;4205892;34;20114;-59
2021/04/13 06:37:01;;;;;;;10.25;3.37;;;;;;;;;;4193200;34;20129;-58
2021/04/13 06:39:27;;;;;;;4.90;2.62;;;;;;;;;;4193046;34;20539;-58
2021/04/13 06:42:03;;;;;;;13.75;3.72;;;;;;;;;;4192877;34;20113;-58
2021/04/13 06:44:41;;;;;;;1.30;1.20;;;;;;;;;;4206005;34;20106;-58
2021/04/13 06:47:31;;;;;;;7.43;2.55;;;;;;;;;;4192946;34;20117;-59
2021/04/13 06:50:26;;;;;;;7.32;3.03;;;;;;;;;;4205978;34;20105;-58
2021/04/13 06:52:55;;;;;;;8.75;3.10;;;;;;;;;;4155735;34;20534;-58
2021/04/13 06:55:59;;;;;;;7.12;2.35;;;;;;;;;;4204450;34;20185;-58
2021/04/13 06:59:02;;;;;;;12.90;3.10;;;;;;;;;;4205703;34;20138;-58
2021/04/13 07:01:51;;;;;;;2.58;2.00;;;;;;;;;;4194177;34;20106;-50
2021/04/13 07:04:38;;;;;;;6.62;2.65;;;;;;;;;;4194655;34;20513;-58
2021/04/13 07:07:32;;;;;;;19.10;4.00;;;;;;;;;;4194438;34;20129;-58
2021/04/13 07:10:20;;;;;;;2.62;1.67;;;;;;;;;;4192421;34;20116;-58
2021/04/13 07:12:53;;;;;;;10.02;3.62;;;;;;;;;;4193487;34;20188;-57
2021/04/13 07:15:46;;;;;;;8.40;3.20;;;;;;;;;;4192875;34;20125;-58
2021/04/13 07:18:35;;;;;;;4.37;2.20;;;;;;;;;;4205339;34;20172;-58
2021/04/13 07:21:12;;;;;;;4.62;2.40;;;;;;;;;;4192565;34;20114;-57
2021/04/13 07:23:47;;;;;;;3.20;2.00;;;;;;;;;;4192626;34;20581;-58
2021/04/13 07:26:18;;;;;;;9.52;3.72;;;;;;;;;;4192533;34;20139;-54
2021/04/13 07:29:21;;;;;;;15.02;2.60;;;;;;;;;;4181310;34;20174;-47
2021/04/13 07:32:01;;;;;;;7.10;2.70;;;;;;;;;;4177587;34;20117;-50
2021/04/13 07:34:28;;;;;;;11.32;2.92;;;;;;;;;;4205418;34;20344;-50
2021/04/13 07:37:22;;;;;;;16.12;3.30;;;;;;;;;;4192329;34;20137;-50
2021/04/13 07:39:51;;;;;;;7.65;2.92;;;;;;;;;;4205356;34;20097;-49
2021/04/13 07:42:21;;;;;;;6.47;2.17;;;;;;;;;;4180984;34;20110;-50
2021/04/13 07:45:18;;;;;;;6.72;2.08;;;;;;;;;;4192306;34;20102;-49
2021/04/13 07:47:44;;;;;;;11.05;3.15;;;;;;;;;;4205210;34;20125;-49
2021/04/13 07:50:11;;;;;;;8.80;2.95;;;;;;;;;;4205495;34;20208;-49
2021/04/13 07:52:54;;;;;;;4.65;1.80;;;;;;;;;;4205135;34;20205;-50
2021/04/13 07:55:26;;;;;;;12.02;3.05;;;;;;;;;;4205060;34;20533;-48
2021/04/13 07:58:18;;;;;;;20.40;3.05;;;;;;;;;;4192434;34;20526;-55
2021/04/13 08:00:46;;;;;;;7.40;3.03;;;;;;;;;;4181704;34;20104;-50
2021/04/13 08:03:22;;;;;;;1.52;1.42;;;;;;;;;;4192307;34;20132;-51
2021/04/13 08:05:53;;;;;;;6.95;2.60;;;;;;;;;;4192101;34;20569;-50
2021/04/13 08:08:19;;;;;;;1.87;1.73;;;;;;;;;;4192555;34;20106;-48
2021/04/13 08:10:45;;;;;;;5.03;2.65;;;;;;;;;;4204795;34;20089;-49
2021/04/13 08:13:13;;;;;;;10.45;3.05;;;;;;;;;;4191494;34;20388;-49
2021/04/13 08:15:46;;;;;;;5.80;3.00;;;;;;;;;;4204985;34;20102;-59
2021/04/13 08:18:33;;;;;;;;;;;;;;;;;;4205345;34;20137;-56
2021/04/13 08:21:15;;;;;;;10.32;2.97;;;;;;;;;;4204977;34;19977;-57
2021/04/13 08:23:42;;;;;;;6.68;2.85;;;;;;;;;;4204920;34;20416;-57
2021/04/13 08:26:19;;;;;;;4.15;2.12;;;;;;;;;;4204872;34;20121;-56
2021/04/13 08:29:07;;;;;;;8.45;3.08;;;;;;;;;;4204813;34;20106;-56
2021/04/13 08:35:03;;;;;;;8.00;2.75;;;;;;;;;;4204882;34;20101;-59
2021/04/13 08:37:31;;;;;;;3.22;2.22;;;;;;;;;;4191862;34;20317;-57
2021/04/13 08:40:09;;;;;;;4.60;2.15;;;;;;;;;;4192039;34;20509;-57
2021/04/13 08:43:03;;;;;;;9.88;2.05;;;;;;;;;;4180610;34;20109;-57
2021/04/13 08:45:31;;;;;;;14.73;3.90;;;;;;;;;;4193544;34;20108;-57
2021/04/13 08:48:22;;;;;;;4.62;2.25;;;;;;;;;;4192025;34;20188;-57
2021/04/13 08:50:49;;;;;;;3.72;1.98;;;;;;;;;;4204562;34;20201;-58
2021/04/13 08:53:31;;;;;;;4.43;2.10;;;;;;;;;;4191925;34;20122;-59
2021/04/13 08:56:11;;;;;;;6.53;2.70;;;;;;;;;;4191873;34;20129;-58
2021/04/13 08:58:42;;;;;;;4.00;2.05;;;;;;;;;;4180932;34;20201;-57
2021/04/13 09:01:24;;;;;;;20.45;3.17;;;;;;;;;;4204494;34;20164;-57
2021/04/13 09:03:50;;;;;;;6.53;3.33;;;;;;;;;;4204591;34;20529;-58
2021/04/13 09:06:19;;;;;;;7.30;3.12;;;;;;;;;;4204317;34;20212;-57
2021/04/13 09:08:53;;;;;;;7.57;2.47;;;;;;;;;;4204934;34;20140;-58
2021/04/13 09:11:47;;;;;;;2.65;0.93;;;;;;;;;;4191566;34;20141;-58
2021/04/13 09:14:14;;;;;;;7.28;3.50;;;;;;;;;;4204774;34;20173;-58
2021/04/13 09:16:43;;;;;;;11.32;3.10;;;;;;;;;;4204392;34;20137;-58
2021/04/13 09:19:21;;;;;;;11.43;3.40;;;;;;;;;;4180589;34;20094;-58
2021/04/13 09:21:48;;;;;;;7.00;3.10;;;;;;;;;;4180226;34;20128;-57
2021/04/13 09:24:35;;;;;;;6.85;1.62;;;;;;;;;;4192077;34;20427;-59
2021/04/13 09:27:33;;;;;;;7.00;2.42;;;;;;;;;;4183040;34;20113;-58
2021/04/13 09:30:30;;;;;;;1.58;1.42;;;;;;;;;;4206324;34;20530;-57
2021/04/13 09:33:12;;;;;;;13.57;3.53;;;;;;;;;;4206514;34;20121;-57
2021/04/13 09:35:50;;;;;;;10.35;4.20;;;;;;;;;;4182442;34;20124;-57
2021/04/13 09:38:31;;;;;;;11.45;2.40;;;;;;;;;;4193772;34;20200;-57
2021/04/13 09:41:34;;;;;;;11.95;3.72;;;;;;;;;;4194931;34;20503;-58
2021/04/13 09:44:19;;;;;;;17.73;4.05;;;;;;;;;;4176795;34;20145;-57
2021/04/13 09:47:09;;;;;;;8.00;2.12;;;;;;;;;;4206174;34;20514;-57
2021/04/13 09:50:17;;;;;;;5.95;3.53;;;;;;;;;;4206809;34;20105;-58
2021/04/13 09:53:05;;;;;;;13.00;2.08;;;;;;;;;;4179847;34;20221;-58
2021/04/13 09:56:16;;;;;;;7.40;1.92;;;;;;;;;;4206219;34;20548;-58
2021/04/13 09:59:09;;;;;;;4.85;2.80;;;;;;;;;;4189828;34;20102;-57
2021/04/13 10:01:57;;;;;;;11.02;3.05;;;;;;;;;;4193115;34;20106;-57
2021/04/13 10:04:44;;;;;;;8.35;3.10;;;;;;;;;;4206431;34;20188;-58
2021/04/13 10:07:52;;;;;;;13.10;4.15;;;;;;;;;;4205790;34;20254;-57
2021/04/13 10:10:24;;;;;;;8.27;2.62;;;;;;;;;;4206034;34;20278;-57
2021/04/13 10:13:09;;;;;;;6.97;3.10;;;;;;;;;;4193374;34;20108;-57
2021/04/13 10:15:49;;;;;;;7.30;2.78;;;;;;;;;;4206358;34;20200;-59
2021/04/13 10:18:36;;;;;;;11.43;2.78;;;;;;;;;;4193301;34;20101;-58
2021/04/13 10:21:04;;;;;;;12.13;3.42;;;;;;;;;;4206027;34;20215;-58
2021/04/13 10:23:51;;;;;;;10.88;4.40;;;;;;;;;;4206148;34;20526;-58
2021/04/13 10:26:32;;;;;;;8.15;2.67;;;;;;;;;;4194943;34;20182;-57
2021/04/13 10:29:28;;;;;;;8.68;2.50;;;;;;;;;;4206173;34;20122;-57
2021/04/13 10:32:29;;;;;;;6.32;2.70;;;;;;;;;;4206122;34;20101;-58
2021/04/13 10:35:27;;;;;;;11.18;3.22;;;;;;;;;;4195026;34;20544;-58
2021/04/13 10:38:18;;;;;;;19.00;7.37;;;;;;;;;;4194972;34;20125;-58
2021/04/13 10:41:06;;;;;;;7.12;3.30;;;;;;;;;;4205927;34;20117;-59
2021/04/13 10:43:47;;;;;;;27.67;5.25;;;;;;;;;;4205872;34;20118;-58
2021/04/13 10:46:19;;;;;;;14.87;4.25;;;;;;;;;;4193037;34;20105;-59
2021/04/13 10:49:07;;;;;;;5.65;2.47;;;;;;;;;;4205743;34;20097;-59
2021/04/13 10:51:55;;;;;;;13.55;3.65;;;;;;;;;;4205634;34;20105;-58
2021/04/13 10:54:36;;;;;;;9.45;2.92;;;;;;;;;;4193004;34;20129;-60
2021/04/13 10:57:21;;;;;;;2.47;1.85;;;;;;;;;;4205478;34;20181;-58
2021/04/13 11:00:06;;;;;;;11.27;2.90;;;;;;;;;;4192916;34;20121;-56
2021/04/13 11:03:09;;;;;;;9.20;3.67;;;;;;;;;;4205707;34;20172;-57
2021/04/13 11:06:08;;;;;;;10.63;3.33;;;;;;;;;;4205340;34;20136;-56
2021/04/13 11:09:02;;;;;;;12.90;3.80;;;;;;;;;;4205518;34;20522;-58
2021/04/13 11:11:55;;;;;;;5.87;3.33;;;;;;;;;;4205392;34;20181;-59
2021/04/13 11:15:05;;;;;;;17.23;5.50;;;;;;;;;;4192788;34;20211;-59
2021/04/13 11:17:37;;;;;;;11.27;4.55;;;;;;;;;;4174103;34;20250;-59
2021/04/13 11:20:09;;;;;;;10.27;3.83;;;;;;;;;;4205420;34;20105;-59
2021/04/13 11:22:58;;;;;;;11.32;4.95;;;;;;;;;;4192796;34;20149;-60
2021/04/13 11:25:36;;;;;;;9.82;4.35;;;;;;;;;;4194408;34;20200;-59
2021/04/13 11:28:37;;;;;;;7.40;3.55;;;;;;;;;;4205478;34;20197;-60
2021/04/13 11:31:25;;;;;;;7.78;3.75;;;;;;;;;;4203637;34;20124;-59
2021/04/13 11:34:11;;;;;;;16.23;3.92;;;;;;;;;;4205489;34;20124;-59
2021/04/13 11:37:06;;;;;;;9.88;4.68;;;;;;;;;;4176544;34;20305;-59
2021/04/13 11:39:56;;;;;;;12.60;5.97;;;;;;;;;;4192552;34;20545;-56
2021/04/13 11:42:31;;;;;;;10.68;4.07;;;;;;;;;;4192351;34;20505;-57
2021/04/13 11:44:59;;;;;;;9.25;4.62;;;;;;;;;;4181040;34;20197;-57
2021/04/13 11:47:31;;;;;;;12.77;4.82;;;;;;;;;;4205238;34;20113;-57
2021/04/13 11:50:18;;;;;;;10.18;3.83;;;;;;;;;;4181526;34;20102;-57
2021/04/13 11:52:53;;;;;;;7.53;4.62;;;;;;;;;;4194103;34;20100;-56
2021/04/13 11:55:29;;;;;;;15.32;5.50;;;;;;;;;;4192198;34;20552;-58
2021/04/13 11:58:16;;;;;;;8.93;3.45;;;;;;;;;;4205170;34;20098;-57
2021/04/13 12:00:46;;;;;;;5.10;3.28;;;;;;;;;;4205280;34;20098;-57
2021/04/13 12:03:19;;;;;;;5.37;2.47;;;;;;;;;;4205300;34;20125;-57
2021/04/13 12:05:47;;;;;;;5.30;3.20;;;;;;;;;;4205119;34;20113;-57
2021/04/13 12:08:31;;;;;;;9.90;4.50;;;;;;;;;;4204922;34;20137;-57
2021/04/13 12:11:07;;;;;;;10.23;3.55;;;;;;;;;;4204863;34;20133;-58
2021/04/13 12:13:41;;;;;;;10.65;3.08;;;;;;;;;;4192834;34;20117;-58
2021/04/13 12:16:09;;;;;;;17.60;4.43;;;;;;;;;;4192499;34;20603;-58
2021/04/13 12:18:36;;;;;;;10.13;4.00;;;;;;;;;;4192127;34;20094;-58
2021/04/13 12:21:24;;;;;;;13.60;4.62;;;;;;;;;;4204855;34;20656;-57
2021/04/13 12:24:04;;;;;;;8.15;4.20;;;;;;;;;;4204946;34;20153;-58
2021/04/13 12:26:32;;;;;;;7.03;3.42;;;;;;;;;;4203215;34;20145;-59
2021/04/13 12:28:58;;;;;;;15.40;5.20;;;;;;;;;;4192343;34;20113;-59
2021/04/13 12:31:25;;;;;;;3.85;2.78;;;;;;;;;;4191722;34;20113;-58
2021/04/13 12:33:55;;;;;;;13.55;4.12;;;;;;;;;;4192156;34;20220;-60
2021/04/13 12:36:41;;;;;;;10.57;4.20;;;;;;;;;;4191852;34;20128;-58
2021/04/13 12:39:07;;;;;;;;;;;;;;;;;;4205071;34;20112;-60
2021/04/13 12:41:35;;;;;;;6.65;3.90;;;;;;;;;;4203405;34;19983;-60
2021/04/13 12:44:22;;;;;;;10.07;3.97;;;;;;;;;;4205055;34;20186;-59
2021/04/13 12:46:49;;;;;;;13.30;4.35;;;;;;;;;;4182717;34;20125;-58
2021/04/13 12:49:15;;;;;;;8.55;3.25;;;;;;;;;;4191975;34;20184;-58
2021/04/13 12:52:02;;;;;;;14.43;3.58;;;;;;;;;;4203310;34;20112;-58
2021/04/13 12:54:39;;;;;;;9.70;3.28;;;;;;;;;;4204357;34;20387;-58
2021/04/13 12:57:05;;;;;;;8.77;4.62;;;;;;;;;;4204510;34;20619;-58
2021/04/13 12:59:31;;;;;;;10.40;4.72;;;;;;;;;;4203759;34;20536;-58
2021/04/13 13:01:57;;;;;;;6.40;3.83;;;;;;;;;;4204572;34;20124;-57
2021/04/13 13:04:33;;;;;;;8.35;2.67;;;;;;;;;;4204563;34;20145;-58
2021/04/13 13:06:58;;;;;;;12.98;3.80;;;;;;;;;;4204184;34;20618;-60
2021/04/13 13:09:32;;;;;;;8.10;3.75;;;;;;;;;;4191511;34;20117;-58
2021/04/13 13:12:06;;;;;;;15.95;3.50;;;;;;;;;;4191865;34;20133;-59
2021/04/13 13:14:34;;;;;;;8.50;3.77;;;;;;;;;;4181012;34;20109;-58
2021/04/13 13:17:00;;;;;;;7.82;3.28;;;;;;;;;;4191624;34;20132;-58
2021/04/13 13:19:32;;;;;;;9.63;3.40;;;;;;;;;;4191527;34;20225;-58
2021/04/13 13:21:59;;;;;;;3.72;2.17;;;;;;;;;;4191936;34;20462;-58
2021/04/13 13:24:31;;;;;;;11.10;4.62;;;;;;;;;;4191497;34;20102;-58
2021/04/13 13:26:58;;;;;;;10.40;3.83;;;;;;;;;;4191893;34;20129;-58
2021/04/13 13:29:23;;;;;;;8.07;2.75;;;;;;;;;;4204362;34;20214;-58
2021/04/13 13:31:49;;;;;;;1.67;1.58;;;;;;;;;;4204387;34;20106;-58
2021/04/13 13:34:17;;;;;;;2.83;1.83;;;;;;;;;;4204336;34;20129;-58
2021/04/13 13:36:44;;;;;;;9.50;3.28;;;;;;;;;;4191513;34;20137;-58
2021/04/13 13:39:20;;;;;;;8.00;3.87;;;;;;;;;;4191365;34;20194;-57
2021/04/13 13:41:48;;;;;;;7.43;4.28;;;;;;;;;;4181070;34;20201;-59
2021/04/13 13:44:25;;;;;;;10.07;3.87;;;;;;;;;;4180014;34;20489;-58
2021/04/13 13:47:19;;;;;;;20.17;5.25;;;;;;;;;;4190998;34;20121;-58
2021/04/13 13:49:48;;;;;;;13.32;3.55;;;;;;;;;;4192685;34;20160;-58
2021/04/13 13:52:33;;;;;;;5.05;2.97;;;;;;;;;;4203939;34;20118;-58
2021/04/13 13:55:09;;;;;;;7.68;2.75;;;;;;;;;;4193104;34;20125;-60
2021/04/13 13:57:37;;;;;;;5.90;3.20;;;;;;;;;;4203919;34;20101;-59
2021/04/13 14:00:07;;;;;;;8.88;3.20;;;;;;;;;;4203666;34;20117;-58
2021/04/13 14:02:34;;;;;;;8.82;3.72;;;;;;;;;;4203761;34;20193;-58
2021/04/13 14:05:12;;;;;;;8.10;3.40;;;;;;;;;;4191025;34;20090;-58
2021/04/13 14:07:38;;;;;;;11.50;4.72;;;;;;;;;;4203620;34;20102;-58
2021/04/13 14:10:23;;;;;;;8.23;3.55;;;;;;;;;;4191377;34;20118;-58
2021/04/13 14:12:49;;;;;;;11.48;3.15;;;;;;;;;;4193123;34;20224;-59
2021/04/13 14:15:21;;;;;;;17.00;3.35;;;;;;;;;;4205901;34;20542;-58
2021/04/13 14:18:00;;;;;;;9.18;3.50;;;;;;;;;;4206015;34;20690;-58
2021/04/13 14:20:26;;;;;;;22.65;3.72;;;;;;;;;;4206160;34;20121;-59
2021/04/13 14:23:06;;;;;;;8.60;3.22;;;;;;;;;;4205821;34;20630;-58
2021/04/13 14:25:34;;;;;;;6.53;3.05;;;;;;;;;;4206129;34;20143;-58
2021/04/13 14:28:31;;;;;;;13.13;3.97;;;;;;;;;;4193316;34;20110;-58
2021/04/13 14:30:57;;;;;;;13.57;4.07;;;;;;;;;;4187171;34;20228;-58
2021/04/13 14:33:22;;;;;;;18.25;4.20;;;;;;;;;;4193229;34;20141;-58
2021/04/13 14:35:49;;;;;;;14.23;3.50;;;;;;;;;;4205779;34;20548;-58
2021/04/13 14:38:19;;;;;;;17.65;3.80;;;;;;;;;;4205833;34;20228;-58
2021/04/13 14:40:45;;;;;;;14.93;3.70;;;;;;;;;;4192842;34;20534;-59
2021/04/13 14:43:12;;;;;;;15.77;4.85;;;;;;;;;;4205671;34;20129;-57
2021/04/13 14:45:38;;;;;;;27.73;3.65;;;;;;;;;;4193034;34;20134;-58
2021/04/13 14:48:05;;;;;;;20.12;4.10;;;;;;;;;;4205946;34;20193;-57
2021/04/13 14:50:34;;;;;;;18.92;4.12;;;;;;;;;;4205641;34;20160;-60
2021/04/13 14:53:01;;;;;;;8.30;3.50;;;;;;;;;;4205778;34;20172;-59
2021/04/13 14:55:28;;;;;;;20.75;4.40;;;;;;;;;;4193092;34;20559;-59
2021/04/13 14:57:56;;;;;;;18.42;5.37;;;;;;;;;;4192761;34;20110;-59
2021/04/13 15:00:22;;;;;;;13.18;4.93;;;;;;;;;;4205650;34;20502;-60
2021/04/13 15:02:48;;;;;;;22.87;5.32;;;;;;;;;;4192738;34;20383;-60
2021/04/13 15:05:14;;;;;;;22.95;4.20;;;;;;;;;;4192798;34;20206;-59
2021/04/13 15:07:40;;;;;;;24.60;5.40;;;;;;;;;;4205527;34;20130;-62
2021/04/13 15:10:12;;;;;;;25.98;4.70;;;;;;;;;;4192959;34;20613;-59
2021/04/13 15:12:38;;;;;;;33.42;5.32;;;;;;;;;;4192617;34;20419;-59
2021/04/13 15:15:06;;;;;;;45.03;6.97;;;;;;;;;;4204071;34;20113;-59
2021/04/13 15:17:31;;;;;;;28.90;5.12;;;;;;;;;;4205497;34;20128;-58
2021/04/13 15:19:57;;;;;;;32.20;6.07;;;;;;;;;;4192381;34;20125;-58
2021/04/13 15:22:25;;;;;;;22.55;5.78;;;;;;;;;;4191755;34;20116;-58
2021/04/13 15:24:53;;;;;;;21.27;6.43;;;;;;;;;;4205210;34;20102;-58
2021/04/13 15:27:19;;;;;;;32.22;7.40;;;;;;;;;;4192482;34;20106;-61
2021/04/13 15:29:45;;;;;;;30.20;7.10;;;;;;;;;;4192314;34;20097;-60